sensor_id;sensor_type;location;lat;lon;timestamp;P1;durP1;ratioP1;P2;durP2;ratioP2
63688;SDS011;54895;40.928;14.480;2023-02-28T00:00:20;37.15;;;24.90;;
63688;SDS011;54895;40.928;14.480;2023-02-28T00:02:47;39.10;;;26.27;;
63688;SDS011;54895;40.928;14.480;2023-02-28T00:05:15;35.42;;;23.65;;
63688;SDS011;54895;40.928;14.480;2023-02-28T00:07:44;40.95;;;28.17;;
63688;SDS011;54895;40.928;14.480;2023-02-28T00:10:11;32.70;;;20.70;;
63688;SDS011;54895;40.928;14.480;2023-02-28T00:12:40;37.80;;;23.05;;
63688;SDS011;54895;40.928;14.480;2023-02-28T00:15:09;41.88;;;27.17;;
63688;SDS011;54895;40.928;14.480;2023-02-28T00:17:37;38.95;;;26.38;;
63688;SDS011;54895;40.928;14.480;2023-02-28T00:20:04;39.03;;;24.23;;
63688;SDS011;54895;40.928;14.480;2023-02-28T00:22:36;34.97;;;24.00;;
63688;SDS011;54895;40.928;14.480;2023-02-28T00:25:07;39.05;;;26.27;;
63688;SDS011;54895;40.928;14.480;2023-02-28T00:27:34;35.08;;;23.05;;
63688;SDS011;54895;40.928;14.480;2023-02-28T00:30:04;39.72;;;25.95;;
63688;SDS011;54895;40.928;14.480;2023-02-28T00:32:32;26.55;;;15.90;;
63688;SDS011;54895;40.928;14.480;2023-02-28T00:35:01;34.20;;;23.02;;
63688;SDS011;54895;40.928;14.480;2023-02-28T00:37:28;18.17;;;12.38;;
63688;SDS011;54895;40.928;14.480;2023-02-28T00:39:55;30.33;;;18.92;;
63688;SDS011;54895;40.928;14.480;2023-02-28T00:42:22;30.45;;;21.20;;
63688;SDS011;54895;40.928;14.480;2023-02-28T00:44:50;31.33;;;21.10;;
63688;SDS011;54895;40.928;14.480;2023-02-28T00:47:16;35.58;;;22.95;;
63688;SDS011;54895;40.928;14.480;2023-02-28T00:49:43;28.33;;;18.48;;
63688;SDS011;54895;40.928;14.480;2023-02-28T00:52:11;23.10;;;16.10;;
63688;SDS011;54895;40.928;14.480;2023-02-28T00:54:37;21.98;;;16.73;;
63688;SDS011;54895;40.928;14.480;2023-02-28T00:57:04;18.85;;;12.70;;
63688;SDS011;54895;40.928;14.480;2023-02-28T00:59:31;14.73;;;10.13;;
63688;SDS011;54895;40.928;14.480;2023-02-28T01:01:58;19.05;;;13.60;;
63688;SDS011;54895;40.928;14.480;2023-02-28T01:04:24;19.38;;;12.38;;
63688;SDS011;54895;40.928;14.480;2023-02-28T01:06:51;19.55;;;12.25;;
63688;SDS011;54895;40.928;14.480;2023-02-28T01:09:17;15.20;;;11.48;;
63688;SDS011;54895;40.928;14.480;2023-02-28T01:11:44;17.17;;;10.93;;
63688;SDS011;54895;40.928;14.480;2023-02-28T01:14:14;13.98;;;8.80;;
63688;SDS011;54895;40.928;14.480;2023-02-28T01:16:42;14.93;;;8.55;;
63688;SDS011;54895;40.928;14.480;2023-02-28T01:19:09;13.80;;;9.60;;
63688;SDS011;54895;40.928;14.480;2023-02-28T01:21:35;10.50;;;7.03;;
63688;SDS011;54895;40.928;14.480;2023-02-28T01:24:02;11.40;;;8.00;;
63688;SDS011;54895;40.928;14.480;2023-02-28T01:26:29;12.93;;;8.70;;
63688;SDS011;54895;40.928;14.480;2023-02-28T01:28:56;12.32;;;9.25;;
63688;SDS011;54895;40.928;14.480;2023-02-28T01:31:25;17.73;;;11.75;;
63688;SDS011;54895;40.928;14.480;2023-02-28T01:33:52;13.18;;;9.10;;
63688;SDS011;54895;40.928;14.480;2023-02-28T01:36:20;13.23;;;8.82;;
63688;SDS011;54895;40.928;14.480;2023-02-28T01:38:48;11.10;;;6.70;;
63688;SDS011;54895;40.928;14.480;2023-02-28T01:41:25;9.50;;;5.88;;
63688;SDS011;54895;40.928;14.480;2023-02-28T01:46:29;9.13;;;4.27;;
63688;SDS011;54895;40.928;14.480;2023-02-28T01:49:02;5.40;;;4.15;;
63688;SDS011;54895;40.928;14.480;2023-02-28T01:51:33;7.65;;;4.32;;
63688;SDS011;54895;40.928;14.480;2023-02-28T01:56:41;5.93;;;3.55;;
63688;SDS011;54895;40.928;14.480;2023-02-28T01:59:12;7.25;;;3.25;;
63688;SDS011;54895;40.928;14.480;2023-02-28T02:01:44;5.30;;;3.20;;
63688;SDS011;54895;40.928;14.480;2023-02-28T02:04:12;6.60;;;3.47;;
63688;SDS011;54895;40.928;14.480;2023-02-28T02:06:42;5.88;;;2.97;;
63688;SDS011;54895;40.928;14.480;2023-02-28T02:09:11;5.63;;;2.70;;
63688;SDS011;54895;40.928;14.480;2023-02-28T02:11:40;5.63;;;2.90;;
63688;SDS011;54895;40.928;14.480;2023-02-28T02:14:12;9.68;;;3.13;;
63688;SDS011;54895;40.928;14.480;2023-02-28T02:22:25;3.67;;;2.90;;
63688;SDS011;54895;40.928;14.480;2023-02-28T02:36:19;5.22;;;2.83;;
63688;SDS011;54895;40.928;14.480;2023-02-28T02:44:24;2.80;;;2.30;;
63688;SDS011;54895;40.928;14.480;2023-02-28T02:47:10;3.35;;;2.05;;
63688;SDS011;54895;40.928;14.480;2023-02-28T02:49:39;3.88;;;2.10;;
63688;SDS011;54895;40.928;14.480;2023-02-28T02:52:13;4.28;;;2.20;;
63688;SDS011;54895;40.928;14.480;2023-02-28T02:54:44;3.25;;;2.20;;
63688;SDS011;54895;40.928;14.480;2023-02-28T02:57:20;4.00;;;2.20;;
63688;SDS011;54895;40.928;14.480;2023-02-28T02:59:52;3.72;;;2.55;;
63688;SDS011;54895;40.928;14.480;2023-02-28T03:02:22;3.08;;;1.80;;
63688;SDS011;54895;40.928;14.480;2023-02-28T03:04:53;4.10;;;1.65;;
63688;SDS011;54895;40.928;14.480;2023-02-28T03:07:27;2.80;;;1.67;;
63688;SDS011;54895;40.928;14.480;2023-02-28T03:09:54;2.33;;;1.23;;
63688;SDS011;54895;40.928;14.480;2023-02-28T03:12:23;3.85;;;1.20;;
63688;SDS011;54895;40.928;14.480;2023-02-28T03:15:19;2.28;;;1.15;;
63688;SDS011;54895;40.928;14.480;2023-02-28T03:18:03;2.15;;;1.30;;
63688;SDS011;54895;40.928;14.480;2023-02-28T03:20:58;1.90;;;1.40;;
63688;SDS011;54895;40.928;14.480;2023-02-28T03:23:39;3.33;;;1.38;;
63688;SDS011;54895;40.928;14.480;2023-02-28T03:26:13;4.20;;;1.55;;
63688;SDS011;54895;40.928;14.480;2023-02-28T03:29:04;2.45;;;1.10;;
63688;SDS011;54895;40.928;14.480;2023-02-28T03:31:39;2.08;;;1.30;;
63688;SDS011;54895;40.928;14.480;2023-02-28T03:34:26;1.45;;;1.05;;
63688;SDS011;54895;40.928;14.480;2023-02-28T03:36:59;3.10;;;1.30;;
63688;SDS011;54895;40.928;14.480;2023-02-28T03:39:37;2.17;;;1.10;;
63688;SDS011;54895;40.928;14.480;2023-02-28T03:42:15;3.05;;;1.65;;
63688;SDS011;54895;40.928;14.480;2023-02-28T03:47:16;2.50;;;1.10;;
63688;SDS011;54895;40.928;14.480;2023-02-28T03:52:28;2.97;;;1.08;;
63688;SDS011;54895;40.928;14.480;2023-02-28T03:55:00;1.73;;;1.27;;
63688;SDS011;54895;40.928;14.480;2023-02-28T03:58:08;2.47;;;1.25;;
63688;SDS011;54895;40.928;14.480;2023-02-28T04:00:35;3.47;;;1.20;;
63688;SDS011;54895;40.928;14.480;2023-02-28T04:03:06;4.90;;;1.65;;
63688;SDS011;54895;40.928;14.480;2023-02-28T04:05:32;2.97;;;1.30;;
63688;SDS011;54895;40.928;14.480;2023-02-28T04:08:10;2.00;;;1.10;;
63688;SDS011;54895;40.928;14.480;2023-02-28T04:10:36;1.75;;;1.10;;
63688;SDS011;54895;40.928;14.480;2023-02-28T04:13:04;2.13;;;1.17;;
63688;SDS011;54895;40.928;14.480;2023-02-28T04:15:30;1.77;;;1.10;;
63688;SDS011;54895;40.928;14.480;2023-02-28T04:17:57;4.70;;;1.20;;
63688;SDS011;54895;40.928;14.480;2023-02-28T04:20:24;3.38;;;1.30;;
63688;SDS011;54895;40.928;14.480;2023-02-28T04:22:50;3.28;;;1.20;;
63688;SDS011;54895;40.928;14.480;2023-02-28T04:25:18;4.68;;;1.65;;
63688;SDS011;54895;40.928;14.480;2023-02-28T04:27:45;3.35;;;1.50;;
63688;SDS011;54895;40.928;14.480;2023-02-28T04:30:11;2.20;;;1.08;;
63688;SDS011;54895;40.928;14.480;2023-02-28T04:32:38;4.95;;;1.48;;
63688;SDS011;54895;40.928;14.480;2023-02-28T04:35:05;3.17;;;1.30;;
63688;SDS011;54895;40.928;14.480;2023-02-28T04:37:31;5.55;;;1.20;;
63688;SDS011;54895;40.928;14.480;2023-02-28T04:40:01;5.45;;;1.40;;
63688;SDS011;54895;40.928;14.480;2023-02-28T04:42:28;5.15;;;1.40;;
63688;SDS011;54895;40.928;14.480;2023-02-28T04:45:04;2.67;;;1.30;;
63688;SDS011;54895;40.928;14.480;2023-02-28T04:47:31;1.60;;;1.30;;
63688;SDS011;54895;40.928;14.480;2023-02-28T04:49:57;2.80;;;1.10;;
63688;SDS011;54895;40.928;14.480;2023-02-28T04:52:24;2.83;;;1.33;;
63688;SDS011;54895;40.928;14.480;2023-02-28T04:54:51;3.70;;;1.30;;
63688;SDS011;54895;40.928;14.480;2023-02-28T04:57:18;2.05;;;1.08;;
63688;SDS011;54895;40.928;14.480;2023-02-28T04:59:44;2.30;;;1.00;;
63688;SDS011;54895;40.928;14.480;2023-02-28T05:02:11;4.60;;;1.10;;
63688;SDS011;54895;40.928;14.480;2023-02-28T05:04:38;3.83;;;1.20;;
63688;SDS011;54895;40.928;14.480;2023-02-28T05:07:04;5.82;;;1.48;;
63688;SDS011;54895;40.928;14.480;2023-02-28T05:09:32;5.88;;;1.30;;
63688;SDS011;54895;40.928;14.480;2023-02-28T05:12:01;2.38;;;1.00;;
63688;SDS011;54895;40.928;14.480;2023-02-28T05:14:30;8.52;;;2.50;;
63688;SDS011;54895;40.928;14.480;2023-02-28T05:16:57;3.88;;;1.65;;
63688;SDS011;54895;40.928;14.480;2023-02-28T05:19:24;2.78;;;1.50;;
63688;SDS011;54895;40.928;14.480;2023-02-28T05:21:51;2.67;;;1.27;;
63688;SDS011;54895;40.928;14.480;2023-02-28T05:24:21;4.93;;;1.25;;
63688;SDS011;54895;40.928;14.480;2023-02-28T05:26:51;2.58;;;1.10;;
63688;SDS011;54895;40.928;14.480;2023-02-28T05:29:18;3.13;;;1.30;;
63688;SDS011;54895;40.928;14.480;2023-02-28T05:31:45;2.78;;;1.20;;
63688;SDS011;54895;40.928;14.480;2023-02-28T05:34:12;3.40;;;1.33;;
63688;SDS011;54895;40.928;14.480;2023-02-28T05:36:41;1.90;;;1.20;;
63688;SDS011;54895;40.928;14.480;2023-02-28T05:39:08;3.08;;;1.17;;
63688;SDS011;54895;40.928;14.480;2023-02-28T05:41:42;3.17;;;1.70;;
63688;SDS011;54895;40.928;14.480;2023-02-28T05:44:09;6.95;;;1.58;;
63688;SDS011;54895;40.928;14.480;2023-02-28T05:46:36;2.90;;;1.50;;
63688;SDS011;54895;40.928;14.480;2023-02-28T05:49:04;4.68;;;1.50;;
63688;SDS011;54895;40.928;14.480;2023-02-28T05:51:30;2.47;;;1.30;;
63688;SDS011;54895;40.928;14.480;2023-02-28T05:54:00;6.38;;;1.70;;
63688;SDS011;54895;40.928;14.480;2023-02-28T05:56:27;4.35;;;1.63;;
63688;SDS011;54895;40.928;14.480;2023-02-28T05:58:54;2.40;;;1.48;;
63688;SDS011;54895;40.928;14.480;2023-02-28T06:01:22;3.85;;;1.80;;
63688;SDS011;54895;40.928;14.480;2023-02-28T06:03:51;2.45;;;1.25;;
63688;SDS011;54895;40.928;14.480;2023-02-28T06:06:18;4.80;;;1.42;;
63688;SDS011;54895;40.928;14.480;2023-02-28T06:08:44;5.10;;;1.50;;
63688;SDS011;54895;40.928;14.480;2023-02-28T06:11:11;3.05;;;1.50;;
63688;SDS011;54895;40.928;14.480;2023-02-28T06:13:38;5.82;;;1.75;;
63688;SDS011;54895;40.928;14.480;2023-02-28T06:16:05;4.15;;;1.92;;
63688;SDS011;54895;40.928;14.480;2023-02-28T06:18:33;6.82;;;1.98;;
63688;SDS011;54895;40.928;14.480;2023-02-28T06:20:59;4.13;;;1.58;;
63688;SDS011;54895;40.928;14.480;2023-02-28T06:23:26;3.55;;;1.75;;
63688;SDS011;54895;40.928;14.480;2023-02-28T06:25:53;3.90;;;1.58;;
63688;SDS011;54895;40.928;14.480;2023-02-28T06:28:24;5.68;;;1.73;;
63688;SDS011;54895;40.928;14.480;2023-02-28T06:30:51;2.97;;;1.60;;
63688;SDS011;54895;40.928;14.480;2023-02-28T06:33:18;4.10;;;1.60;;
63688;SDS011;54895;40.928;14.480;2023-02-28T06:35:46;8.75;;;1.95;;
63688;SDS011;54895;40.928;14.480;2023-02-28T06:38:16;6.05;;;1.30;;
63688;SDS011;54895;40.928;14.480;2023-02-28T06:40:44;4.20;;;1.30;;
63688;SDS011;54895;40.928;14.480;2023-02-28T06:43:11;3.60;;;1.42;;
63688;SDS011;54895;40.928;14.480;2023-02-28T06:45:43;3.13;;;1.20;;
63688;SDS011;54895;40.928;14.480;2023-02-28T06:48:10;5.32;;;1.50;;
63688;SDS011;54895;40.928;14.480;2023-02-28T06:50:36;4.68;;;1.70;;
63688;SDS011;54895;40.928;14.480;2023-02-28T06:53:05;7.43;;;1.90;;
63688;SDS011;54895;40.928;14.480;2023-02-28T06:55:31;7.20;;;1.50;;
63688;SDS011;54895;40.928;14.480;2023-02-28T06:57:58;7.57;;;1.52;;
63688;SDS011;54895;40.928;14.480;2023-02-28T07:00:24;4.47;;;1.33;;
63688;SDS011;54895;40.928;14.480;2023-02-28T07:02:51;9.27;;;1.63;;
63688;SDS011;54895;40.928;14.480;2023-02-28T07:05:20;4.55;;;1.70;;
63688;SDS011;54895;40.928;14.480;2023-02-28T07:07:46;4.72;;;1.42;;
63688;SDS011;54895;40.928;14.480;2023-02-28T07:10:15;5.93;;;2.00;;
63688;SDS011;54895;40.928;14.480;2023-02-28T07:12:43;9.63;;;2.00;;
63688;SDS011;54895;40.928;14.480;2023-02-28T07:15:10;7.68;;;1.88;;
63688;SDS011;54895;40.928;14.480;2023-02-28T07:17:36;3.97;;;1.45;;
63688;SDS011;54895;40.928;14.480;2023-02-28T07:20:03;15.15;;;2.33;;
63688;SDS011;54895;40.928;14.480;2023-02-28T07:22:30;8.82;;;1.80;;
63688;SDS011;54895;40.928;14.480;2023-02-28T07:24:57;6.15;;;1.73;;
63688;SDS011;54895;40.928;14.480;2023-02-28T07:27:23;6.60;;;1.42;;
63688;SDS011;54895;40.928;14.480;2023-02-28T07:29:51;7.10;;;1.27;;
63688;SDS011;54895;40.928;14.480;2023-02-28T07:32:19;5.97;;;1.42;;
63688;SDS011;54895;40.928;14.480;2023-02-28T07:34:45;8.45;;;1.60;;
63688;SDS011;54895;40.928;14.480;2023-02-28T07:37:12;5.68;;;1.60;;
63688;SDS011;54895;40.928;14.480;2023-02-28T07:39:39;12.07;;;1.35;;
63688;SDS011;54895;40.928;14.480;2023-02-28T07:42:07;6.35;;;1.45;;
63688;SDS011;54895;40.928;14.480;2023-02-28T07:44:38;5.75;;;1.33;;
63688;SDS011;54895;40.928;14.480;2023-02-28T07:47:09;3.50;;;1.35;;
63688;SDS011;54895;40.928;14.480;2023-02-28T07:49:37;6.95;;;1.80;;
63688;SDS011;54895;40.928;14.480;2023-02-28T07:52:04;4.93;;;1.60;;
63688;SDS011;54895;40.928;14.480;2023-02-28T07:54:32;9.88;;;1.92;;
63688;SDS011;54895;40.928;14.480;2023-02-28T07:56:59;6.60;;;1.88;;
63688;SDS011;54895;40.928;14.480;2023-02-28T07:59:26;9.43;;;1.65;;
63688;SDS011;54895;40.928;14.480;2023-02-28T08:01:52;6.25;;;1.95;;
63688;SDS011;54895;40.928;14.480;2023-02-28T08:04:19;5.47;;;1.63;;
63688;SDS011;54895;40.928;14.480;2023-02-28T08:06:46;7.53;;;1.58;;
63688;SDS011;54895;40.928;14.480;2023-02-28T08:09:13;6.05;;;1.75;;
63688;SDS011;54895;40.928;14.480;2023-02-28T08:11:40;4.63;;;1.67;;
63688;SDS011;54895;40.928;14.480;2023-02-28T08:14:08;5.10;;;1.67;;
63688;SDS011;54895;40.928;14.480;2023-02-28T08:16:34;4.85;;;1.48;;
63688;SDS011;54895;40.928;14.480;2023-02-28T08:19:01;11.20;;;1.77;;
63688;SDS011;54895;40.928;14.480;2023-02-28T08:21:27;9.07;;;1.45;;
63688;SDS011;54895;40.928;14.480;2023-02-28T08:23:54;6.75;;;1.65;;
63688;SDS011;54895;40.928;14.480;2023-02-28T08:26:20;4.03;;;1.15;;
63688;SDS011;54895;40.928;14.480;2023-02-28T08:28:46;4.13;;;1.30;;
63688;SDS011;54895;40.928;14.480;2023-02-28T08:31:13;7.43;;;1.80;;
63688;SDS011;54895;40.928;14.480;2023-02-28T08:33:42;5.68;;;1.60;;
63688;SDS011;54895;40.928;14.480;2023-02-28T08:36:10;8.68;;;1.70;;
63688;SDS011;54895;40.928;14.480;2023-02-28T08:38:37;11.90;;;2.05;;
63688;SDS011;54895;40.928;14.480;2023-02-28T08:41:05;7.18;;;1.65;;
63688;SDS011;54895;40.928;14.480;2023-02-28T08:43:34;9.35;;;2.33;;
63688;SDS011;54895;40.928;14.480;2023-02-28T08:46:01;4.47;;;1.60;;
63688;SDS011;54895;40.928;14.480;2023-02-28T08:48:29;4.63;;;1.38;;
63688;SDS011;54895;40.928;14.480;2023-02-28T08:50:58;5.45;;;1.63;;
63688;SDS011;54895;40.928;14.480;2023-02-28T08:53:26;6.47;;;1.63;;
63688;SDS011;54895;40.928;14.480;2023-02-28T08:55:57;5.75;;;1.35;;
63688;SDS011;54895;40.928;14.480;2023-02-28T08:58:23;5.90;;;1.30;;
63688;SDS011;54895;40.928;14.480;2023-02-28T09:00:50;8.88;;;1.88;;
63688;SDS011;54895;40.928;14.480;2023-02-28T09:03:17;10.20;;;2.05;;
63688;SDS011;54895;40.928;14.480;2023-02-28T09:08:23;7.85;;;1.77;;
63688;SDS011;54895;40.928;14.480;2023-02-28T09:10:52;4.70;;;1.40;;
63688;SDS011;54895;40.928;14.480;2023-02-28T09:13:20;8.18;;;1.85;;
63688;SDS011;54895;40.928;14.480;2023-02-28T09:15:46;4.65;;;1.70;;
63688;SDS011;54895;40.928;14.480;2023-02-28T09:18:13;5.43;;;1.88;;
63688;SDS011;54895;40.928;14.480;2023-02-28T09:20:40;6.82;;;1.70;;
63688;SDS011;54895;40.928;14.480;2023-02-28T09:23:08;7.32;;;2.00;;
63688;SDS011;54895;40.928;14.480;2023-02-28T09:25:36;5.95;;;1.80;;
63688;SDS011;54895;40.928;14.480;2023-02-28T09:28:03;4.88;;;1.80;;
63688;SDS011;54895;40.928;14.480;2023-02-28T09:30:30;11.27;;;1.98;;
63688;SDS011;54895;40.928;14.480;2023-02-28T09:32:56;11.20;;;2.17;;
63688;SDS011;54895;40.928;14.480;2023-02-28T09:35:23;8.63;;;1.92;;
63688;SDS011;54895;40.928;14.480;2023-02-28T09:37:51;8.52;;;2.10;;
63688;SDS011;54895;40.928;14.480;2023-02-28T09:40:19;7.70;;;1.88;;
63688;SDS011;54895;40.928;14.480;2023-02-28T09:42:49;10.77;;;1.67;;
63688;SDS011;54895;40.928;14.480;2023-02-28T09:48:10;7.95;;;2.17;;
63688;SDS011;54895;40.928;14.480;2023-02-28T09:50:42;10.50;;;2.40;;
63688;SDS011;54895;40.928;14.480;2023-02-28T09:53:22;10.18;;;2.50;;
63688;SDS011;54895;40.928;14.480;2023-02-28T09:56:30;12.05;;;2.50;;
63688;SDS011;54895;40.928;14.480;2023-02-28T09:59:00;9.55;;;2.72;;
63688;SDS011;54895;40.928;14.480;2023-02-28T10:01:33;11.52;;;2.78;;
63688;SDS011;54895;40.928;14.480;2023-02-28T10:04:17;14.23;;;2.40;;
63688;SDS011;54895;40.928;14.480;2023-02-28T10:06:53;10.50;;;2.08;;
63688;SDS011;54895;40.928;14.480;2023-02-28T10:09:24;12.13;;;2.70;;
63688;SDS011;54895;40.928;14.480;2023-02-28T10:11:54;9.63;;;2.13;;
63688;SDS011;54895;40.928;14.480;2023-02-28T10:14:26;9.52;;;2.50;;
63688;SDS011;54895;40.928;14.480;2023-02-28T10:17:08;14.25;;;2.60;;
63688;SDS011;54895;40.928;14.480;2023-02-28T10:25:33;9.95;;;3.03;;
63688;SDS011;54895;40.928;14.480;2023-02-28T10:28:12;12.23;;;2.50;;
63688;SDS011;54895;40.928;14.480;2023-02-28T10:30:57;13.23;;;2.92;;
63688;SDS011;54895;40.928;14.480;2023-02-28T10:33:29;13.73;;;2.50;;
63688;SDS011;54895;40.928;14.480;2023-02-28T10:35:57;8.18;;;3.10;;
63688;SDS011;54895;40.928;14.480;2023-02-28T10:38:28;10.20;;;3.08;;
63688;SDS011;54895;40.928;14.480;2023-02-28T10:43:39;12.13;;;3.40;;
63688;SDS011;54895;40.928;14.480;2023-02-28T10:51:38;14.45;;;3.10;;
63688;SDS011;54895;40.928;14.480;2023-02-28T10:54:11;16.75;;;3.38;;
63688;SDS011;54895;40.928;14.480;2023-02-28T10:59:51;9.43;;;2.53;;
63688;SDS011;54895;40.928;14.480;2023-02-28T11:02:40;10.15;;;2.63;;
63688;SDS011;54895;40.928;14.480;2023-02-28T11:05:24;11.68;;;2.58;;
63688;SDS011;54895;40.928;14.480;2023-02-28T11:08:06;16.25;;;5.53;;
63688;SDS011;54895;40.928;14.480;2023-02-28T11:10:43;8.23;;;2.83;;
63688;SDS011;54895;40.928;14.480;2023-02-28T11:13:20;6.45;;;2.72;;
63688;SDS011;54895;40.928;14.480;2023-02-28T11:15:52;9.15;;;3.08;;
63688;SDS011;54895;40.928;14.480;2023-02-28T11:21:16;3.13;;;1.70;;
63688;SDS011;54895;40.928;14.480;2023-02-28T11:23:46;8.68;;;2.40;;
63688;SDS011;54895;40.928;14.480;2023-02-28T11:26:15;11.25;;;2.60;;
63688;SDS011;54895;40.928;14.480;2023-02-28T11:29:11;7.95;;;1.63;;
63688;SDS011;54895;40.928;14.480;2023-02-28T11:31:40;7.22;;;2.70;;
63688;SDS011;54895;40.928;14.480;2023-02-28T11:34:23;7.55;;;2.08;;
63688;SDS011;54895;40.928;14.480;2023-02-28T11:36:53;3.70;;;1.55;;
63688;SDS011;54895;40.928;14.480;2023-02-28T11:39:22;6.53;;;1.83;;
63688;SDS011;54895;40.928;14.480;2023-02-28T11:44:58;12.38;;;2.38;;
63688;SDS011;54895;40.928;14.480;2023-02-28T11:56:19;7.90;;;2.05;;
63688;SDS011;54895;40.928;14.480;2023-02-28T12:07:16;6.93;;;2.25;;
63688;SDS011;54895;40.928;14.480;2023-02-28T12:18:04;7.10;;;3.00;;
63688;SDS011;54895;40.928;14.480;2023-02-28T12:20:59;15.18;;;2.50;;
63688;SDS011;54895;40.928;14.480;2023-02-28T12:31:54;15.40;;;4.47;;
63688;SDS011;54895;40.928;14.480;2023-02-28T12:34:47;17.02;;;4.85;;
63688;SDS011;54895;40.928;14.480;2023-02-28T12:37:22;15.57;;;3.83;;
63688;SDS011;54895;40.928;14.480;2023-02-28T12:40:00;11.30;;;3.20;;
63688;SDS011;54895;40.928;14.480;2023-02-28T12:42:51;8.25;;;2.47;;
63688;SDS011;54895;40.928;14.480;2023-02-28T12:45:23;13.90;;;3.30;;
63688;SDS011;54895;40.928;14.480;2023-02-28T12:47:56;12.80;;;3.47;;
63688;SDS011;54895;40.928;14.480;2023-02-28T12:50:27;14.52;;;3.90;;
63688;SDS011;54895;40.928;14.480;2023-02-28T12:52:58;10.27;;;3.80;;
63688;SDS011;54895;40.928;14.480;2023-02-28T12:58:39;12.55;;;3.60;;
63688;SDS011;54895;40.928;14.480;2023-02-28T13:01:25;10.48;;;4.28;;
63688;SDS011;54895;40.928;14.480;2023-02-28T13:04:14;11.48;;;3.78;;
63688;SDS011;54895;40.928;14.480;2023-02-28T13:09:38;16.45;;;3.35;;
63688;SDS011;54895;40.928;14.480;2023-02-28T13:12:15;8.40;;;3.65;;
63688;SDS011;54895;40.928;14.480;2023-02-28T13:14:42;15.35;;;4.13;;
63688;SDS011;54895;40.928;14.480;2023-02-28T13:21:28;10.05;;;4.10;;
63688;SDS011;54895;40.928;14.480;2023-02-28T13:23:57;13.55;;;4.25;;
63688;SDS011;54895;40.928;14.480;2023-02-28T13:27:11;13.32;;;3.90;;
63688;SDS011;54895;40.928;14.480;2023-02-28T13:35:34;9.98;;;4.07;;
63688;SDS011;54895;40.928;14.480;2023-02-28T13:39:58;15.98;;;5.05;;
63688;SDS011;54895;40.928;14.480;2023-02-28T13:42:55;19.90;;;5.93;;
63688;SDS011;54895;40.928;14.480;2023-02-28T13:45:24;12.80;;;4.57;;
63688;SDS011;54895;40.928;14.480;2023-02-28T13:47:58;15.63;;;4.85;;
63688;SDS011;54895;40.928;14.480;2023-02-28T13:50:30;14.77;;;4.55;;
63688;SDS011;54895;40.928;14.480;2023-02-28T13:55:57;10.10;;;3.20;;
63688;SDS011;54895;40.928;14.480;2023-02-28T14:04:30;13.15;;;4.00;;
63688;SDS011;54895;40.928;14.480;2023-02-28T14:07:04;10.43;;;3.40;;
63688;SDS011;54895;40.928;14.480;2023-02-28T14:09:37;12.38;;;4.00;;
63688;SDS011;54895;40.928;14.480;2023-02-28T14:18:01;14.60;;;4.53;;
63688;SDS011;54895;40.928;14.480;2023-02-28T14:20:37;13.52;;;4.70;;
63688;SDS011;54895;40.928;14.480;2023-02-28T14:23:13;13.60;;;5.03;;
63688;SDS011;54895;40.928;14.480;2023-02-28T14:26:00;17.10;;;5.40;;
63688;SDS011;54895;40.928;14.480;2023-02-28T14:31:42;19.60;;;5.38;;
63688;SDS011;54895;40.928;14.480;2023-02-28T14:37:09;14.35;;;5.10;;
63688;SDS011;54895;40.928;14.480;2023-02-28T14:39:41;13.23;;;5.32;;
63688;SDS011;54895;40.928;14.480;2023-02-28T14:44:56;15.15;;;4.50;;
63688;SDS011;54895;40.928;14.480;2023-02-28T14:47:23;13.38;;;4.70;;
63688;SDS011;54895;40.928;14.480;2023-02-28T14:49:54;13.15;;;5.22;;
63688;SDS011;54895;40.928;14.480;2023-02-28T14:52:22;10.52;;;4.30;;
63688;SDS011;54895;40.928;14.480;2023-02-28T14:54:57;11.63;;;4.70;;
63688;SDS011;54895;40.928;14.480;2023-02-28T14:57:28;12.27;;;5.00;;
63688;SDS011;54895;40.928;14.480;2023-02-28T15:00:00;11.90;;;5.10;;
63688;SDS011;54895;40.928;14.480;2023-02-28T15:02:31;14.57;;;5.40;;
63688;SDS011;54895;40.928;14.480;2023-02-28T15:05:02;16.05;;;6.13;;
63688;SDS011;54895;40.928;14.480;2023-02-28T15:07:45;14.63;;;6.13;;
63688;SDS011;54895;40.928;14.480;2023-02-28T15:18:10;17.38;;;6.95;;
63688;SDS011;54895;40.928;14.480;2023-02-28T15:20:49;17.23;;;6.95;;
63688;SDS011;54895;40.928;14.480;2023-02-28T15:23:16;14.68;;;6.90;;
63688;SDS011;54895;40.928;14.480;2023-02-28T15:25:45;19.30;;;6.57;;
63688;SDS011;54895;40.928;14.480;2023-02-28T15:28:18;23.92;;;7.28;;
63688;SDS011;54895;40.928;14.480;2023-02-28T15:31:00;23.50;;;7.35;;
63688;SDS011;54895;40.928;14.480;2023-02-28T15:33:29;15.55;;;6.85;;
63688;SDS011;54895;40.928;14.480;2023-02-28T15:36:16;17.00;;;6.80;;
63688;SDS011;54895;40.928;14.480;2023-02-28T15:38:49;21.13;;;8.25;;
63688;SDS011;54895;40.928;14.480;2023-02-28T15:41:22;22.40;;;8.52;;
63688;SDS011;54895;40.928;14.480;2023-02-28T15:44:14;20.23;;;8.18;;
63688;SDS011;54895;40.928;14.480;2023-02-28T15:49:27;19.23;;;6.85;;
63688;SDS011;54895;40.928;14.480;2023-02-28T15:51:57;14.90;;;6.25;;
63688;SDS011;54895;40.928;14.480;2023-02-28T15:54:43;18.30;;;6.60;;
63688;SDS011;54895;40.928;14.480;2023-02-28T15:57:13;15.45;;;6.32;;
63688;SDS011;54895;40.928;14.480;2023-02-28T16:02:37;23.50;;;9.02;;
63688;SDS011;54895;40.928;14.480;2023-02-28T16:07:37;14.18;;;5.65;;
63688;SDS011;54895;40.928;14.480;2023-02-28T16:10:06;12.82;;;4.30;;
63688;SDS011;54895;40.928;14.480;2023-02-28T16:12:36;16.23;;;6.00;;
63688;SDS011;54895;40.928;14.480;2023-02-28T16:15:25;16.90;;;6.10;;
63688;SDS011;54895;40.928;14.480;2023-02-28T16:17:53;15.82;;;5.22;;
63688;SDS011;54895;40.928;14.480;2023-02-28T16:20:25;15.95;;;4.72;;
63688;SDS011;54895;40.928;14.480;2023-02-28T16:25:22;13.70;;;3.67;;
63688;SDS011;54895;40.928;14.480;2023-02-28T16:27:52;13.05;;;4.38;;
63688;SDS011;54895;40.928;14.480;2023-02-28T16:30:24;8.05;;;2.30;;
63688;SDS011;54895;40.928;14.480;2023-02-28T16:32:54;7.95;;;2.33;;
63688;SDS011;54895;40.928;14.480;2023-02-28T16:35:22;4.93;;;2.17;;
63688;SDS011;54895;40.928;14.480;2023-02-28T16:37:53;7.55;;;1.35;;
63688;SDS011;54895;40.928;14.480;2023-02-28T16:40:22;2.65;;;1.13;;
63688;SDS011;54895;40.928;14.480;2023-02-28T16:42:53;2.13;;;1.45;;
63688;SDS011;54895;40.928;14.480;2023-02-28T16:47:52;4.47;;;1.65;;
63688;SDS011;54895;40.928;14.480;2023-02-28T16:50:27;3.67;;;1.58;;
63688;SDS011;54895;40.928;14.480;2023-02-28T16:52:55;4.32;;;2.78;;
63688;SDS011;54895;40.928;14.480;2023-02-28T16:55:23;4.65;;;2.80;;
63688;SDS011;54895;40.928;14.480;2023-02-28T16:57:53;3.90;;;2.30;;
63688;SDS011;54895;40.928;14.480;2023-02-28T17:00:22;9.70;;;3.30;;
63688;SDS011;54895;40.928;14.480;2023-02-28T17:02:49;5.43;;;3.40;;
63688;SDS011;54895;40.928;14.480;2023-02-28T17:05:16;4.40;;;3.45;;
63688;SDS011;54895;40.928;14.480;2023-02-28T17:07:44;6.90;;;3.75;;
63688;SDS011;54895;40.928;14.480;2023-02-28T17:10:16;7.20;;;4.68;;
63688;SDS011;54895;40.928;14.480;2023-02-28T17:12:43;8.75;;;4.75;;
63688;SDS011;54895;40.928;14.480;2023-02-28T17:15:10;12.98;;;6.82;;
63688;SDS011;54895;40.928;14.480;2023-02-28T17:17:38;11.95;;;7.80;;
63688;SDS011;54895;40.928;14.480;2023-02-28T17:20:07;17.63;;;9.15;;
63688;SDS011;54895;40.928;14.480;2023-02-28T17:22:39;17.17;;;8.70;;
63688;SDS011;54895;40.928;14.480;2023-02-28T17:25:09;16.70;;;7.38;;
63688;SDS011;54895;40.928;14.480;2023-02-28T17:27:36;15.32;;;8.90;;